sensor_id;sensor_type;location;lat;lon;timestamp;pressure;altitude;pressure_sealevel;temperature;humidity
48668;BME280;34453;52.198;5.004;2023-04-12T00:01:36;100567.91;;;8.29;100.00
48668;BME280;34453;52.198;5.004;2023-04-12T00:04:02;100558.03;;;8.33;100.00
48668;BME280;34453;52.198;5.004;2023-04-12T00:06:29;100555.00;;;8.28;100.00
48668;BME280;34453;52.198;5.004;2023-04-12T00:08:58;100555.28;;;8.25;100.00
48668;BME280;34453;52.198;5.004;2023-04-12T00:11:24;100552.69;;;8.25;100.00
48668;BME280;34453;52.198;5.004;2023-04-12T00:13:50;100547.47;;;8.25;100.00
48668;BME280;34453;52.198;5.004;2023-04-12T00:16:15;100535.50;;;8.22;100.00
48668;BME280;34453;52.198;5.004;2023-04-12T00:18:41;100536.59;;;8.20;100.00
48668;BME280;34453;52.198;5.004;2023-04-12T00:21:07;100526.16;;;8.20;100.00
48668;BME280;34453;52.198;5.004;2023-04-12T00:23:32;100519.03;;;8.22;100.00
48668;BME280;34453;52.198;5.004;2023-04-12T00:25:58;100515.63;;;8.21;100.00
48668;BME280;34453;52.198;5.004;2023-04-12T00:28:23;100503.94;;;8.16;100.00
48668;BME280;34453;52.198;5.004;2023-04-12T00:30:49;100496.81;;;8.18;100.00
48668;BME280;34453;52.198;5.004;2023-04-12T00:33:14;100477.06;;;8.15;100.00
48668;BME280;34453;52.198;5.004;2023-04-12T00:35:39;100474.31;;;8.17;100.00
48668;BME280;34453;52.198;5.004;2023-04-12T00:38:05;100469.81;;;8.19;100.00
48668;BME280;34453;52.198;5.004;2023-04-12T00:40:35;100449.22;;;8.16;100.00
48668;BME280;34453;52.198;5.004;2023-04-12T00:43:00;100433.44;;;8.17;100.00
48668;BME280;34453;52.198;5.004;2023-04-12T00:45:27;100419.44;;;8.08;100.00
48668;BME280;34453;52.198;5.004;2023-04-12T00:47:53;100416.16;;;8.06;100.00
48668;BME280;34453;52.198;5.004;2023-04-12T00:50:20;100418.34;;;8.11;100.00
48668;BME280;34453;52.198;5.004;2023-04-12T00:52:47;100413.13;;;8.11;100.00
48668;BME280;34453;52.198;5.004;2023-04-12T00:55:13;100409.72;;;8.10;100.00
48668;BME280;34453;52.198;5.004;2023-04-12T00:57:40;100415.06;;;8.09;100.00
48668;BME280;34453;52.198;5.004;2023-04-12T01:00:07;100412.44;;;8.09;100.00
48668;BME280;34453;52.198;5.004;2023-04-12T01:02:35;100389.16;;;8.07;100.00
48668;BME280;34453;52.198;5.004;2023-04-12T01:05:04;100381.59;;;8.04;100.00
48668;BME280;34453;52.198;5.004;2023-04-12T01:10:11;100376.13;;;8.07;100.00
48668;BME280;34453;52.198;5.004;2023-04-12T01:12:52;100365.16;;;8.04;100.00
48668;BME280;34453;52.198;5.004;2023-04-12T01:15:21;100352.81;;;8.06;100.00
48668;BME280;34453;52.198;5.004;2023-04-12T01:20:24;100343.34;;;8.05;100.00
48668;BME280;34453;52.198;5.004;2023-04-12T01:28:34;100313.16;;;8.02;100.00
48668;BME280;34453;52.198;5.004;2023-04-12T01:31:02;100297.13;;;8.07;100.00
48668;BME280;34453;52.198;5.004;2023-04-12T01:33:28;100306.19;;;8.03;100.00
48668;BME280;34453;52.198;5.004;2023-04-12T01:35:58;100297.00;;;8.08;100.00
48668;BME280;34453;52.198;5.004;2023-04-12T01:38:25;100283.44;;;8.05;100.00
48668;BME280;34453;52.198;5.004;2023-04-12T01:40:51;100262.84;;;8.12;100.00
48668;BME280;34453;52.198;5.004;2023-04-12T01:43:16;100264.91;;;8.08;100.00
48668;BME280;34453;52.198;5.004;2023-04-12T01:45:42;100257.38;;;8.05;100.00
48668;BME280;34453;52.198;5.004;2023-04-12T01:48:09;100260.38;;;8.10;100.00
48668;BME280;34453;52.198;5.004;2023-04-12T01:50:41;100243.94;;;8.09;100.00
48668;BME280;34453;52.198;5.004;2023-04-12T01:56:17;100239.81;;;8.07;100.00
48668;BME280;34453;52.198;5.004;2023-04-12T01:58:46;100224.16;;;8.07;100.00
48668;BME280;34453;52.198;5.004;2023-04-12T02:01:14;100222.53;;;8.06;100.00
48668;BME280;34453;52.198;5.004;2023-04-12T02:03:40;100214.03;;;8.04;100.00
48668;BME280;34453;52.198;5.004;2023-04-12T02:06:07;100225.00;;;8.07;100.00
48668;BME280;34453;52.198;5.004;2023-04-12T02:08:34;100208.81;;;8.04;100.00
48668;BME280;34453;52.198;5.004;2023-04-12T02:11:00;100209.81;;;8.03;100.00
48668;BME280;34453;52.198;5.004;2023-04-12T02:13:25;100195.13;;;8.02;100.00
48668;BME280;34453;52.198;5.004;2023-04-12T02:15:51;100205.41;;;8.03;100.00
48668;BME280;34453;52.198;5.004;2023-04-12T02:18:19;100196.78;;;8.03;100.00
48668;BME280;34453;52.198;5.004;2023-04-12T02:20:44;100184.56;;;8.03;100.00
48668;BME280;34453;52.198;5.004;2023-04-12T02:23:11;100173.34;;;8.03;100.00
48668;BME280;34453;52.198;5.004;2023-04-12T02:25:36;100170.19;;;7.99;100.00
48668;BME280;34453;52.198;5.004;2023-04-12T02:28:03;100171.00;;;8.00;100.00
48668;BME280;34453;52.198;5.004;2023-04-12T02:30:29;100144.41;;;7.96;100.00
48668;BME280;34453;52.198;5.004;2023-04-12T02:32:54;100141.53;;;7.99;100.00
48668;BME280;34453;52.198;5.004;2023-04-12T02:35:21;100149.88;;;8.03;100.00
48668;BME280;34453;52.198;5.004;2023-04-12T02:37:47;100144.69;;;8.03;100.00
48668;BME280;34453;52.198;5.004;2023-04-12T02:40:13;100134.94;;;8.05;100.00
48668;BME280;34453;52.198;5.004;2023-04-12T02:42:42;100138.34;;;8.05;100.00
48668;BME280;34453;52.198;5.004;2023-04-12T02:45:09;100128.06;;;8.04;100.00
48668;BME280;34453;52.198;5.004;2023-04-12T02:47:35;100117.34;;;8.07;100.00
48668;BME280;34453;52.198;5.004;2023-04-12T02:50:02;100117.78;;;8.02;100.00
48668;BME280;34453;52.198;5.004;2023-04-12T02:52:28;100102.03;;;8.04;100.00
48668;BME280;34453;52.198;5.004;2023-04-12T02:54:55;100105.59;;;8.03;100.00
48668;BME280;34453;52.198;5.004;2023-04-12T02:57:20;100101.78;;;7.97;100.00
48668;BME280;34453;52.198;5.004;2023-04-12T02:59:49;100099.16;;;7.97;100.00
48668;BME280;34453;52.198;5.004;2023-04-12T03:02:17;100087.13;;;7.96;100.00
48668;BME280;34453;52.198;5.004;2023-04-12T03:04:43;100080.25;;;7.95;100.00
48668;BME280;34453;52.198;5.004;2023-04-12T03:07:15;100086.88;;;7.89;100.00
48668;BME280;34453;52.198;5.004;2023-04-12T03:09:40;100069.97;;;7.94;100.00
48668;BME280;34453;52.198;5.004;2023-04-12T03:12:07;100067.66;;;7.91;100.00
48668;BME280;34453;52.198;5.004;2023-04-12T03:14:32;100070.94;;;7.93;100.00
48668;BME280;34453;52.198;5.004;2023-04-12T03:16:57;100070.38;;;7.89;100.00
48668;BME280;34453;52.198;5.004;2023-04-12T03:19:23;100066.28;;;7.86;100.00
48668;BME280;34453;52.198;5.004;2023-04-12T03:21:48;100053.44;;;7.85;100.00
48668;BME280;34453;52.198;5.004;2023-04-12T03:24:13;100061.75;;;7.88;100.00
48668;BME280;34453;52.198;5.004;2023-04-12T03:26:40;100059.16;;;7.88;100.00
48668;BME280;34453;52.198;5.004;2023-04-12T03:29:06;100050.66;;;7.86;100.00
48668;BME280;34453;52.198;5.004;2023-04-12T03:31:35;100045.19;;;7.89;100.00
48668;BME280;34453;52.198;5.004;2023-04-12T03:34:01;100028.72;;;7.89;100.00
48668;BME280;34453;52.198;5.004;2023-04-12T03:36:26;100034.91;;;7.88;100.00
48668;BME280;34453;52.198;5.004;2023-04-12T03:38:53;100022.69;;;7.88;100.00
48668;BME280;34453;52.198;5.004;2023-04-12T03:41:21;100027.91;;;7.88;100.00
48668;BME280;34453;52.198;5.004;2023-04-12T03:43:47;100027.63;;;7.92;100.00
48668;BME280;34453;52.198;5.004;2023-04-12T03:46:13;100019.41;;;7.86;100.00
48668;BME280;34453;52.198;5.004;2023-04-12T03:48:40;100010.78;;;7.86;100.00
48668;BME280;34453;52.198;5.004;2023-04-12T03:51:06;99999.25;;;7.88;100.00
48668;BME280;34453;52.198;5.004;2023-04-12T03:53:35;99990.63;;;7.88;100.00
48668;BME280;34453;52.198;5.004;2023-04-12T03:56:01;99980.50;;;7.85;100.00
48668;BME280;34453;52.198;5.004;2023-04-12T03:58:26;99974.19;;;7.87;100.00
48668;BME280;34453;52.198;5.004;2023-04-12T04:00:51;99979.41;;;7.87;100.00
48668;BME280;34453;52.198;5.004;2023-04-12T04:03:17;99970.34;;;7.92;100.00
48668;BME280;34453;52.198;5.004;2023-04-12T04:05:43;99956.78;;;7.88;100.00
48668;BME280;34453;52.198;5.004;2023-04-12T04:08:08;99965.13;;;7.92;100.00
48668;BME280;34453;52.198;5.004;2023-04-12T04:10:34;99974.72;;;7.91;100.00
48668;BME280;34453;52.198;5.004;2023-04-12T04:13:00;99968.69;;;7.91;100.00
48668;BME280;34453;52.198;5.004;2023-04-12T04:15:25;99966.75;;;7.93;100.00
48668;BME280;34453;52.198;5.004;2023-04-12T04:17:51;99956.03;;;7.96;100.00
48668;BME280;34453;52.198;5.004;2023-04-12T04:20:17;99966.44;;;7.96;100.00
48668;BME280;34453;52.198;5.004;2023-04-12T04:22:43;99950.81;;;7.96;100.00
48668;BME280;34453;52.198;5.004;2023-04-12T04:25:09;99946.16;;;7.99;100.00
48668;BME280;34453;52.198;5.004;2023-04-12T04:27:39;99955.53;;;7.92;100.00
48668;BME280;34453;52.198;5.004;2023-04-12T04:30:05;99962.34;;;7.93;100.00
48668;BME280;34453;52.198;5.004;2023-04-12T04:32:31;99950.25;;;8.02;100.00
48668;BME280;34453;52.198;5.004;2023-04-12T04:34:58;99943.84;;;7.96;100.00
48668;BME280;34453;52.198;5.004;2023-04-12T04:37:24;99929.84;;;7.97;100.00
48668;BME280;34453;52.198;5.004;2023-04-12T04:39:50;99948.63;;;8.01;100.00
48668;BME280;34453;52.198;5.004;2023-04-12T04:42:16;99939.03;;;8.01;100.00
48668;BME280;34453;52.198;5.004;2023-04-12T04:44:41;99945.84;;;8.02;100.00
48668;BME280;34453;52.198;5.004;2023-04-12T04:47:07;99946.16;;;7.99;100.00
48668;BME280;34453;52.198;5.004;2023-04-12T04:49:33;99948.75;;;7.99;100.00
48668;BME280;34453;52.198;5.004;2023-04-12T04:51:58;99951.91;;;8.03;100.00
48668;BME280;34453;52.198;5.004;2023-04-12T04:54:24;99935.97;;;8.06;100.00
48668;BME280;34453;52.198;5.004;2023-04-12T04:56:49;99932.00;;;8.02;100.00
48668;BME280;34453;52.198;5.004;2023-04-12T04:59:16;99940.66;;;8.02;100.00
48668;BME280;34453;52.198;5.004;2023-04-12T05:01:41;99945.19;;;8.00;100.00
48668;BME280;34453;52.198;5.004;2023-04-12T05:04:07;99947.38;;;8.05;100.00
48668;BME280;34453;52.198;5.004;2023-04-12T05:06:32;99944.75;;;8.05;100.00
48668;BME280;34453;52.198;5.004;2023-04-12T05:08:58;99943.25;;;8.02;100.00
48668;BME280;34453;52.198;5.004;2023-04-12T05:11:25;99951.59;;;8.06;100.00
48668;BME280;34453;52.198;5.004;2023-04-12T05:13:51;99945.41;;;8.07;100.00
48668;BME280;34453;52.198;5.004;2023-04-12T05:16:17;99936.28;;;8.03;100.00
48668;BME280;34453;52.198;5.004;2023-04-12T05:18:43;99939.25;;;8.08;100.00
48668;BME280;34453;52.198;5.004;2023-04-12T05:21:08;99938.44;;;8.07;100.00
48668;BME280;34453;52.198;5.004;2023-04-12T05:23:35;99949.66;;;8.08;100.00
48668;BME280;34453;52.198;5.004;2023-04-12T05:26:02;99935.66;;;8.09;100.00
48668;BME280;34453;52.198;5.004;2023-04-12T05:28:28;99942.41;;;8.12;100.00
48668;BME280;34453;52.198;5.004;2023-04-12T05:30:53;99943.22;;;8.12;100.00
48668;BME280;34453;52.198;5.004;2023-04-12T05:33:18;99936.50;;;8.09;100.00
48668;BME280;34453;52.198;5.004;2023-04-12T05:35:44;99945.50;;;8.15;100.00
48668;BME280;34453;52.198;5.004;2023-04-12T05:38:09;99932.19;;;8.18;100.00
48668;BME280;34453;52.198;5.004;2023-04-12T05:40:35;99938.59;;;8.24;100.00
48668;BME280;34453;52.198;5.004;2023-04-12T05:43:01;99941.19;;;8.24;100.00
48668;BME280;34453;52.198;5.004;2023-04-12T05:45:26;99938.59;;;8.24;100.00
48668;BME280;34453;52.198;5.004;2023-04-12T05:47:53;99935.84;;;8.25;100.00
48668;BME280;34453;52.198;5.004;2023-04-12T05:50:19;99931.97;;;8.29;100.00
48668;BME280;34453;52.198;5.004;2023-04-12T05:52:45;99936.88;;;8.33;100.00
48668;BME280;34453;52.198;5.004;2023-04-12T05:55:13;99936.88;;;8.33;100.00
48668;BME280;34453;52.198;5.004;2023-04-12T05:57:39;99949.63;;;8.36;100.00
48668;BME280;34453;52.198;5.004;2023-04-12T06:00:05;99949.63;;;8.36;100.00
48668;BME280;34453;52.198;5.004;2023-04-12T06:02:40;99948.13;;;8.33;100.00
48668;BME280;34453;52.198;5.004;2023-04-12T06:05:09;99952.22;;;8.36;100.00
48668;BME280;34453;52.198;5.004;2023-04-12T06:07:37;99946.88;;;8.37;100.00
48668;BME280;34453;52.198;5.004;2023-04-12T06:10:04;99954.41;;;8.40;100.00
48668;BME280;34453;52.198;5.004;2023-04-12T06:12:29;99936.03;;;8.42;100.00
48668;BME280;34453;52.198;5.004;2023-04-12T06:14:55;99935.75;;;8.45;100.00
48668;BME280;34453;52.198;5.004;2023-04-12T06:17:21;99945.50;;;8.43;100.00
48668;BME280;34453;52.198;5.004;2023-04-12T06:19:46;99954.63;;;8.47;100.00
48668;BME280;34453;52.198;5.004;2023-04-12T06:22:12;99959.84;;;8.47;100.00
48668;BME280;34453;52.198;5.004;2023-04-12T06:24:37;99947.78;;;8.46;100.00
48668;BME280;34453;52.198;5.004;2023-04-12T06:27:03;99955.97;;;8.51;100.00
48668;BME280;34453;52.198;5.004;2023-04-12T06:29:28;99950.75;;;8.51;100.00
48668;BME280;34453;52.198;5.004;2023-04-12T06:31:54;99941.53;;;8.57;100.00
48668;BME280;34453;52.198;5.004;2023-04-12T06:34:19;99924.91;;;8.58;100.00
48668;BME280;34453;52.198;5.004;2023-04-12T06:36:45;99934.38;;;8.59;100.00
48668;BME280;34453;52.198;5.004;2023-04-12T06:39:11;99935.88;;;8.61;100.00
48668;BME280;34453;52.198;5.004;2023-04-12T06:41:38;99930.66;;;8.61;100.00
48668;BME280;34453;52.198;5.004;2023-04-12T06:44:03;99933.94;;;8.63;100.00
48668;BME280;34453;52.198;5.004;2023-04-12T06:46:29;99934.28;;;8.68;100.00
48668;BME280;34453;52.198;5.004;2023-04-12T06:48:55;99933.34;;;8.69;100.00
48668;BME280;34453;52.198;5.004;2023-04-12T06:51:20;99923.78;;;8.78;100.00
48668;BME280;34453;52.198;5.004;2023-04-12T06:53:46;99926.69;;;8.75;100.00
48668;BME280;34453;52.198;5.004;2023-04-12T06:56:11;99937.66;;;8.79;100.00
48668;BME280;34453;52.198;5.004;2023-04-12T06:58:37;99929.97;;;8.77;100.00
48668;BME280;34453;52.198;5.004;2023-04-12T07:01:06;99935.19;;;8.77;100.00
48668;BME280;34453;52.198;5.004;2023-04-12T07:03:32;99933.69;;;8.75;100.00
48668;BME280;34453;52.198;5.004;2023-04-12T07:05:58;99935.75;;;8.89;100.00
48668;BME280;34453;52.198;5.004;2023-04-12T07:08:29;99932.69;;;8.93;100.00
48668;BME280;34453;52.198;5.004;2023-04-12T07:10:54;99941.84;;;8.98;100.00
48668;BME280;34453;52.198;5.004;2023-04-12T07:13:20;99926.38;;;8.96;100.00
48668;BME280;34453;52.198;5.004;2023-04-12T07:15:47;99933.28;;;9.05;100.00
48668;BME280;34453;52.198;5.004;2023-04-12T07:18:13;99939.97;;;9.08;100.00
48668;BME280;34453;52.198;5.004;2023-04-12T07:20:38;99938.50;;;9.05;100.00
48668;BME280;34453;52.198;5.004;2023-04-12T07:23:03;99937.50;;;9.06;100.00
48668;BME280;34453;52.198;5.004;2023-04-12T07:25:29;99946.22;;;9.15;100.00
48668;BME280;34453;52.198;5.004;2023-04-12T07:27:54;99934.94;;;9.15;100.00
48668;BME280;34453;52.198;5.004;2023-04-12T07:30:20;99935.56;;;9.08;100.00
48668;BME280;34453;52.198;5.004;2023-04-12T07:32:45;99921.59;;;9.18;100.00
48668;BME280;34453;52.198;5.004;2023-04-12T07:35:10;99917.22;;;9.18;100.00
48668;BME280;34453;52.198;5.004;2023-04-12T07:37:36;99925.59;;;9.30;100.00
48668;BME280;34453;52.198;5.004;2023-04-12T07:40:02;99912.16;;;9.25;100.00
48668;BME280;34453;52.198;5.004;2023-04-12T07:42:27;99900.25;;;9.22;100.00
48668;BME280;34453;52.198;5.004;2023-04-12T07:44:53;99902.72;;;9.24;100.00
48668;BME280;34453;52.198;5.004;2023-04-12T07:47:18;99895.50;;;9.18;100.00
48668;BME280;34453;52.198;5.004;2023-04-12T07:49:43;99885.78;;;9.28;100.00
48668;BME280;34453;52.198;5.004;2023-04-12T07:52:09;99878.59;;;9.30;100.00
48668;BME280;34453;52.198;5.004;2023-04-12T07:54:34;99870.16;;;9.36;100.00
48668;BME280;34453;52.198;5.004;2023-04-12T07:57:01;99878.66;;;9.46;100.00
48668;BME280;34453;52.198;5.004;2023-04-12T07:59:27;99873.75;;;9.43;100.00
48668;BME280;34453;52.198;5.004;2023-04-12T08:01:53;99880.31;;;9.47;100.00
48668;BME280;34453;52.198;5.004;2023-04-12T08:04:19;99869.22;;;9.53;100.00
48668;BME280;34453;52.198;5.004;2023-04-12T08:06:44;99858.16;;;9.60;100.00
48668;BME280;34453;52.198;5.004;2023-04-12T08:09:10;99860.47;;;9.71;100.00
48668;BME280;34453;52.198;5.004;2023-04-12T08:11:35;99856.91;;;9.88;100.00
48668;BME280;34453;52.198;5.004;2023-04-12T08:14:01;99860.53;;;10.04;100.00
48668;BME280;34453;52.198;5.004;2023-04-12T08:16:26;99873.59;;;10.20;100.00
48668;BME280;34453;52.198;5.004;2023-04-12T08:18:52;99868.94;;;10.32;100.00
48668;BME280;34453;52.198;5.004;2023-04-12T08:21:17;99862.06;;;10.39;100.00
48668;BME280;34453;52.198;5.004;2023-04-12T08:23:43;99866.78;;;10.60;100.00
48668;BME280;34453;52.198;5.004;2023-04-12T08:26:08;99867.09;;;10.73;100.00
48668;BME280;34453;52.198;5.004;2023-04-12T08:28:34;99864.50;;;10.49;100.00
48668;BME280;34453;52.198;5.004;2023-04-12T08:30:59;99861.56;;;10.35;100.00
48668;BME280;34453;52.198;5.004;2023-04-12T08:33:25;99859.44;;;10.39;100.00
48668;BME280;34453;52.198;5.004;2023-04-12T08:35:51;99869.03;;;10.22;100.00
48668;BME280;34453;52.198;5.004;2023-04-12T08:38:17;99857.94;;;10.20;100.00
48668;BME280;34453;52.198;5.004;2023-04-12T08:40:42;99869.22;;;10.21;100.00
48668;BME280;34453;52.198;5.004;2023-04-12T08:43:10;99857.94;;;10.12;100.00
48668;BME280;34453;52.198;5.004;2023-04-12T08:45:36;99853.34;;;10.06;100.00
48668;BME280;34453;52.198;5.004;2023-04-12T08:48:03;99854.03;;;10.16;100.00
48668;BME280;34453;52.198;5.004;2023-04-12T08:50:30;99858.59;;;10.22;100.00
48668;BME280;34453;52.198;5.004;2023-04-12T08:52:57;99862.88;;;10.31;100.00
48668;BME280;34453;52.198;5.004;2023-04-12T08:55:23;99872.19;;;10.34;100.00
48668;BME280;34453;52.198;5.004;2023-04-12T08:57:51;99870.72;;;10.31;100.00
48668;BME280;34453;52.198;5.004;2023-04-12T09:00:18;99861.91;;;10.32;100.00
48668;BME280;34453;52.198;5.004;2023-04-12T09:02:44;99851.41;;;10.24;100.00
48668;BME280;34453;52.198;5.004;2023-04-12T09:05:12;99846.88;;;10.34;100.00
48668;BME280;34453;52.198;5.004;2023-04-12T09:07:39;99845.88;;;10.27;100.00
48668;BME280;34453;52.198;5.004;2023-04-12T09:10:04;99841.78;;;10.33;100.00
48668;BME280;34453;52.198;5.004;2023-04-12T09:12:30;99851.75;;;10.46;100.00
48668;BME280;34453;52.198;5.004;2023-04-12T09:17:33;99843.56;;;10.49;100.00
48668;BME280;34453;52.198;5.004;2023-04-12T09:20:34;99833.13;;;10.65;100.00
48668;BME280;34453;52.198;5.004;2023-04-12T09:22:52;99838.19;;;10.58;100.00
48668;BME280;34453;52.198;5.004;2023-04-12T09:25:38;99830.66;;;10.64;100.00
48668;BME280;34453;52.198;5.004;2023-04-12T09:28:17;99838.81;;;10.69;100.00
48668;BME280;34453;52.198;5.004;2023-04-12T09:30:43;99840.56;;;10.93;100.00
48668;BME280;34453;52.198;5.004;2023-04-12T09:33:10;99850.59;;;10.81;100.00
48668;BME280;34453;52.198;5.004;2023-04-12T09:35:36;99846.16;;;10.90;100.00
48668;BME280;34453;52.198;5.004;2023-04-12T09:38:08;99852.34;;;10.97;100.00
48668;BME280;34453;52.198;5.004;2023-04-12T09:40:35;99849.56;;;10.98;100.00
48668;BME280;34453;52.198;5.004;2023-04-12T09:43:01;99858.50;;;11.12;100.00
48668;BME280;34453;52.198;5.004;2023-04-12T09:45:27;99854.25;;;11.11;100.00
48668;BME280;34453;52.198;5.004;2023-04-12T09:47:54;99875.22;;;11.03;100.00
48668;BME280;34453;52.198;5.004;2023-04-12T09:52:47;99848.06;;;10.96;100.00
48668;BME280;34453;52.198;5.004;2023-04-12T09:55:13;99841.81;;;11.13;100.00
48668;BME280;34453;52.198;5.004;2023-04-12T09:57:43;99831.69;;;11.10;100.00
48668;BME280;34453;52.198;5.004;2023-04-12T10:00:10;99834.66;;;10.99;100.00
48668;BME280;34453;52.198;5.004;2023-04-12T10:02:43;99824.22;;;10.91;100.00
48668;BME280;34453;52.198;5.004;2023-04-12T10:05:13;99826.84;;;10.91;100.00
48668;BME280;34453;52.198;5.004;2023-04-12T10:07:40;99831.19;;;11.07;100.00
48668;BME280;34453;52.198;5.004;2023-04-12T10:10:07;99828.44;;;11.08;100.00
48668;BME280;34453;52.198;5.004;2023-04-12T10:12:35;99824.66;;;11.03;100.00
48668;BME280;34453;52.198;5.004;2023-04-12T10:15:05;99828.47;;;10.92;100.00
48668;BME280;34453;52.198;5.004;2023-04-12T10:17:33;99839.31;;;10.81;100.00
48668;BME280;34453;52.198;5.004;2023-04-12T10:20:00;99835.38;;;10.76;100.00
48668;BME280;34453;52.198;5.004;2023-04-12T10:22:25;99837.81;;;10.78;100.00
48668;BME280;34453;52.198;5.004;2023-04-12T10:24:51;99833.38;;;10.87;100.00
48668;BME280;34453;52.198;5.004;2023-04-12T10:27:24;99824.81;;;11.09;100.00
48668;BME280;34453;52.198;5.004;2023-04-12T10:29:50;99828.88;;;11.51;100.00
48668;BME280;34453;52.198;5.004;2023-04-12T10:32:22;99816.16;;;11.40;100.00
48668;BME280;34453;52.198;5.004;2023-04-12T10:34:51;99821.16;;;11.27;100.00
48668;BME280;34453;52.198;5.004;2023-04-12T10:37:17;99827.75;;;11.54;100.00
48668;BME280;34453;52.198;5.004;2023-04-12T10:39:44;99826.44;;;11.81;100.00
48668;BME280;34453;52.198;5.004;2023-04-12T10:42:27;99823.50;;;11.76;100.00
48668;BME280;34453;52.198;5.004;2023-04-12T10:44:55;99831.13;;;11.62;100.00
48668;BME280;34453;52.198;5.004;2023-04-12T10:47:54;99836.84;;;11.66;100.00
48668;BME280;34453;52.198;5.004;2023-04-12T10:50:31;99829.38;;;11.78;100.00
48668;BME280;34453;52.198;5.004;2023-04-12T10:55:37;99842.50;;;11.78;100.00
48668;BME280;34453;52.198;5.004;2023-04-12T10:58:03;99835.75;;;11.83;100.00
48668;BME280;34453;52.198;5.004;2023-04-12T11:03:26;99830.13;;;12.18;100.00
48668;BME280;34453;52.198;5.004;2023-04-12T11:06:00;99823.09;;;11.87;100.00
48668;BME280;34453;52.198;5.004;2023-04-12T11:08:28;99840.53;;;11.49;100.00
48668;BME280;34453;52.198;5.004;2023-04-12T11:11:19;99832.47;;;11.58;100.00
48668;BME280;34453;52.198;5.004;2023-04-12T11:13:46;99832.94;;;11.93;100.00
48668;BME280;34453;52.198;5.004;2023-04-12T11:16:12;99835.78;;;12.07;100.00
48668;BME280;34453;52.198;5.004;2023-04-12T11:18:37;99818.44;;;12.43;100.00
48668;BME280;34453;52.198;5.004;2023-04-12T11:21:03;99825.34;;;12.21;100.00
48668;BME280;34453;52.198;5.004;2023-04-12T11:23:32;99831.78;;;12.19;100.00
48668;BME280;34453;52.198;5.004;2023-04-12T11:26:09;99836.66;;;12.22;100.00
48668;BME280;34453;52.198;5.004;2023-04-12T11:28:35;99844.25;;;12.17;100.00
48668;BME280;34453;52.198;5.004;2023-04-12T11:31:01;99826.31;;;12.06;100.00
48668;BME280;34453;52.198;5.004;2023-04-12T11:33:35;99828.94;;;11.74;100.00
48668;BME280;34453;52.198;5.004;2023-04-12T11:36:11;99849.84;;;11.82;100.00
48668;BME280;34453;52.198;5.004;2023-04-12T11:38:37;99838.25;;;11.77;100.00
48668;BME280;34453;52.198;5.004;2023-04-12T11:41:04;99823.22;;;11.71;100.00
48668;BME280;34453;52.198;5.004;2023-04-12T11:43:34;99831.50;;;11.82;100.00
48668;BME280;34453;52.198;5.004;2023-04-12T11:46:01;99834.50;;;12.02;100.00
48668;BME280;34453;52.198;5.004;2023-04-12T11:48:27;99838.03;;;12.33;100.00
48668;BME280;34453;52.198;5.004;2023-04-12T11:50:53;99841.09;;;11.98;100.00
48668;BME280;34453;52.198;5.004;2023-04-12T11:53:26;99849.31;;;11.87;100.00
48668;BME280;34453;52.198;5.004;2023-04-12T11:55:55;99847.56;;;11.79;100.00
48668;BME280;34453;52.198;5.004;2023-04-12T11:58:26;99849.91;;;11.74;100.00
48668;BME280;34453;52.198;5.004;2023-04-12T12:00:53;99858.31;;;11.61;100.00
48668;BME280;34453;52.198;5.004;2023-04-12T12:03:20;99846.84;;;11.62;100.00
48668;BME280;34453;52.198;5.004;2023-04-12T12:05:46;99877.00;;;11.58;100.00
48668;BME280;34453;52.198;5.004;2023-04-12T12:08:13;99870.50;;;11.46;100.00
48668;BME280;34453;52.198;5.004;2023-04-12T12:10:39;99862.50;;;11.39;100.00
48668;BME280;34453;52.198;5.004;2023-04-12T12:13:12;99866.31;;;11.29;100.00
48668;BME280;34453;52.198;5.004;2023-04-12T12:15:38;99870.22;;;11.33;100.00
48668;BME280;34453;52.198;5.004;2023-04-12T12:18:08;99866.97;;;11.23;100.00
48668;BME280;34453;52.198;5.004;2023-04-12T12:20:56;99863.66;;;11.37;100.00
48668;BME280;34453;52.198;5.004;2023-04-12T12:23:30;99870.56;;;12.00;100.00
48668;BME280;34453;52.198;5.004;2023-04-12T12:25:57;99855.19;;;11.97;100.00
48668;BME280;34453;52.198;5.004;2023-04-12T12:28:25;99868.66;;;11.94;100.00
48668;BME280;34453;52.198;5.004;2023-04-12T12:30:55;99863.66;;;11.76;100.00
48668;BME280;34453;52.198;5.004;2023-04-12T12:33:22;99882.50;;;11.72;100.00
48668;BME280;34453;52.198;5.004;2023-04-12T12:35:57;99874.06;;;11.53;100.00
48668;BME280;34453;52.198;5.004;2023-04-12T12:38:22;99871.31;;;11.47;100.00
48668;BME280;34453;52.198;5.004;2023-04-12T12:40:48;99878.66;;;11.12;100.00
48668;BME280;34453;52.198;5.004;2023-04-12T12:43:20;99895.84;;;10.98;100.00
48668;BME280;34453;52.198;5.004;2023-04-12T12:45:45;99882.94;;;10.88;100.00
48668;BME280;34453;52.198;5.004;2023-04-12T12:48:12;99889.66;;;10.83;100.00
48668;BME280;34453;52.198;5.004;2023-04-12T12:50:37;99881.31;;;10.71;100.00
48668;BME280;34453;52.198;5.004;2023-04-12T12:53:03;99892.94;;;10.60;100.00
48668;BME280;34453;52.198;5.004;2023-04-12T12:55:30;99902.09;;;10.56;100.00
48668;BME280;34453;52.198;5.004;2023-04-12T12:57:57;99891.66;;;10.48;100.00
48668;BME280;34453;52.198;5.004;2023-04-12T13:00:27;99897.03;;;10.46;100.00
48668;BME280;34453;52.198;5.004;2023-04-12T13:02:53;99880.19;;;10.49;100.00
48668;BME280;34453;52.198;5.004;2023-04-12T13:05:19;99888.38;;;10.62;100.00
48668;BME280;34453;52.198;5.004;2023-04-12T13:07:45;99897.19;;;10.77;100.00
48668;BME280;34453;52.198;5.004;2023-04-12T13:10:11;99886.41;;;10.56;100.00
48668;BME280;34453;52.198;5.004;2023-04-12T13:12:37;99886.72;;;10.45;100.00
48668;BME280;34453;52.198;5.004;2023-04-12T13:15:03;99885.44;;;10.32;100.00
48668;BME280;34453;52.198;5.004;2023-04-12T13:17:29;99871.47;;;10.89;100.00